sensor_id;sensor_type;location;lat;lon;timestamp;pressure;altitude;pressure_sealevel;temperature;humidity
47104;BME280;32853;52.164;5.400;2023-05-09T00:01:42;101682.81;;;18.27;100.00
47104;BME280;32853;52.164;5.400;2023-05-09T00:04:09;101670.28;;;18.15;100.00
47104;BME280;32853;52.164;5.400;2023-05-09T00:06:35;101689.22;;;18.23;100.00
47104;BME280;32853;52.164;5.400;2023-05-09T00:09:01;101685.53;;;18.26;100.00
47104;BME280;32853;52.164;5.400;2023-05-09T00:11:27;101686.28;;;18.28;100.00
47104;BME280;32853;52.164;5.400;2023-05-09T00:13:52;101675.81;;;18.26;100.00
47104;BME280;32853;52.164;5.400;2023-05-09T00:16:17;101680.09;;;18.29;100.00
47104;BME280;32853;52.164;5.400;2023-05-09T00:18:45;101676.00;;;18.23;100.00
47104;BME280;32853;52.164;5.400;2023-05-09T00:21:11;101681.72;;;18.16;100.00
47104;BME280;32853;52.164;5.400;2023-05-09T00:23:37;101677.88;;;18.21;100.00
47104;BME280;32853;52.164;5.400;2023-05-09T00:26:02;101679.59;;;18.22;100.00
47104;BME280;32853;52.164;5.400;2023-05-09T00:28:28;101679.84;;;18.18;100.00
47104;BME280;32853;52.164;5.400;2023-05-09T00:30:53;101675.41;;;18.18;100.00
47104;BME280;32853;52.164;5.400;2023-05-09T00:33:19;101625.53;;;17.81;100.00
47104;BME280;32853;52.164;5.400;2023-05-09T00:35:44;101664.00;;;18.02;100.00
47104;BME280;32853;52.164;5.400;2023-05-09T00:38:10;101657.66;;;18.05;100.00
47104;BME280;32853;52.164;5.400;2023-05-09T00:40:35;101632.00;;;17.91;100.00
47104;BME280;32853;52.164;5.400;2023-05-09T00:43:01;101664.75;;;18.04;100.00
47104;BME280;32853;52.164;5.400;2023-05-09T00:45:26;101663.59;;;17.94;100.00
47104;BME280;32853;52.164;5.400;2023-05-09T00:47:52;101665.88;;;18.00;100.00
47104;BME280;32853;52.164;5.400;2023-05-09T00:50:17;101645.75;;;17.82;100.00
47104;BME280;32853;52.164;5.400;2023-05-09T00:52:43;101641.31;;;17.82;100.00
47104;BME280;32853;52.164;5.400;2023-05-09T00:55:08;101648.06;;;17.88;100.00
47104;BME280;32853;52.164;5.400;2023-05-09T00:57:35;101657.63;;;17.90;100.00
47104;BME280;32853;52.164;5.400;2023-05-09T01:00:00;101650.81;;;17.86;100.00
47104;BME280;32853;52.164;5.400;2023-05-09T01:02:26;101645.66;;;17.83;100.00
47104;BME280;32853;52.164;5.400;2023-05-09T01:04:52;101653.56;;;17.85;100.00
47104;BME280;32853;52.164;5.400;2023-05-09T01:10:43;101639.53;;;17.83;100.00
47104;BME280;32853;52.164;5.400;2023-05-09T01:13:31;101623.66;;;17.83;100.00
47104;BME280;32853;52.164;5.400;2023-05-09T01:18:44;101569.34;;;17.46;100.00
47104;BME280;32853;52.164;5.400;2023-05-09T01:21:15;101609.09;;;17.76;100.00
47104;BME280;32853;52.164;5.400;2023-05-09T01:31:47;101600.47;;;17.72;100.00
47104;BME280;32853;52.164;5.400;2023-05-09T01:34:16;101600.41;;;17.74;100.00
47104;BME280;32853;52.164;5.400;2023-05-09T01:36:43;101602.34;;;17.70;100.00
47104;BME280;32853;52.164;5.400;2023-05-09T01:39:16;101590.31;;;17.64;100.00
47104;BME280;32853;52.164;5.400;2023-05-09T01:41:43;101589.44;;;17.64;100.00
47104;BME280;32853;52.164;5.400;2023-05-09T01:44:11;101604.75;;;17.75;100.00
47104;BME280;32853;52.164;5.400;2023-05-09T01:46:38;101602.25;;;17.71;100.00
47104;BME280;32853;52.164;5.400;2023-05-09T01:49:06;101584.50;;;17.58;100.00
47104;BME280;32853;52.164;5.400;2023-05-09T01:51:33;101590.47;;;17.61;100.00
47104;BME280;32853;52.164;5.400;2023-05-09T01:54:08;101578.69;;;17.51;100.00
47104;BME280;32853;52.164;5.400;2023-05-09T01:56:35;101593.28;;;17.58;100.00
47104;BME280;32853;52.164;5.400;2023-05-09T01:59:05;101543.31;;;17.38;100.00
47104;BME280;32853;52.164;5.400;2023-05-09T02:01:32;101584.06;;;17.50;100.00
47104;BME280;32853;52.164;5.400;2023-05-09T02:04:06;101584.59;;;17.56;100.00
47104;BME280;32853;52.164;5.400;2023-05-09T02:06:52;101581.75;;;17.59;100.00
47104;BME280;32853;52.164;5.400;2023-05-09T02:09:19;101576.13;;;17.50;100.00
47104;BME280;32853;52.164;5.400;2023-05-09T02:12:11;101574.19;;;17.53;100.00
47104;BME280;32853;52.164;5.400;2023-05-09T02:14:36;101529.47;;;17.19;100.00
47104;BME280;32853;52.164;5.400;2023-05-09T02:17:02;101562.44;;;17.43;100.00
47104;BME280;32853;52.164;5.400;2023-05-09T02:19:42;101531.66;;;17.26;100.00
47104;BME280;32853;52.164;5.400;2023-05-09T02:22:19;101515.88;;;17.25;100.00
47104;BME280;32853;52.164;5.400;2023-05-09T02:24:49;101522.19;;;17.22;100.00
47104;BME280;32853;52.164;5.400;2023-05-09T02:27:15;101557.81;;;17.47;100.00
47104;BME280;32853;52.164;5.400;2023-05-09T02:29:46;101514.84;;;17.27;100.00
47104;BME280;32853;52.164;5.400;2023-05-09T02:32:19;101513.00;;;17.13;100.00
47104;BME280;32853;52.164;5.400;2023-05-09T02:34:46;101539.16;;;17.34;100.00
47104;BME280;32853;52.164;5.400;2023-05-09T02:37:13;101544.06;;;17.40;100.00
47104;BME280;32853;52.164;5.400;2023-05-09T02:39:39;101554.31;;;17.46;100.00
47104;BME280;32853;52.164;5.400;2023-05-09T02:42:06;101551.50;;;17.49;100.00
47104;BME280;32853;52.164;5.400;2023-05-09T02:44:32;101527.13;;;17.28;100.00
47104;BME280;32853;52.164;5.400;2023-05-09T02:46:58;101558.75;;;17.46;100.00
47104;BME280;32853;52.164;5.400;2023-05-09T02:49:23;101560.81;;;17.40;100.00
47104;BME280;32853;52.164;5.400;2023-05-09T02:51:49;101555.78;;;17.36;100.00
47104;BME280;32853;52.164;5.400;2023-05-09T02:54:14;101541.28;;;17.27;100.00
47104;BME280;32853;52.164;5.400;2023-05-09T02:56:39;101553.41;;;17.31;100.00
47104;BME280;32853;52.164;5.400;2023-05-09T02:59:05;101532.00;;;17.20;100.00
47104;BME280;32853;52.164;5.400;2023-05-09T03:01:31;101533.81;;;17.20;100.00
47104;BME280;32853;52.164;5.400;2023-05-09T03:03:57;101513.34;;;17.07;100.00
47104;BME280;32853;52.164;5.400;2023-05-09T03:06:22;101541.75;;;17.20;100.00
47104;BME280;32853;52.164;5.400;2023-05-09T03:08:47;101542.22;;;17.26;100.00
47104;BME280;32853;52.164;5.400;2023-05-09T03:11:13;101536.78;;;17.29;100.00
47104;BME280;32853;52.164;5.400;2023-05-09T03:13:46;101526.53;;;17.23;100.00
47104;BME280;32853;52.164;5.400;2023-05-09T03:16:19;101532.00;;;17.20;100.00
47104;BME280;32853;52.164;5.400;2023-05-09T03:18:45;101501.16;;;17.05;100.00
47104;BME280;32853;52.164;5.400;2023-05-09T03:21:10;101518.78;;;17.20;100.00
47104;BME280;32853;52.164;5.400;2023-05-09T03:23:38;101518.63;;;17.23;100.00
47104;BME280;32853;52.164;5.400;2023-05-09T03:26:03;101507.38;;;17.20;100.00
47104;BME280;32853;52.164;5.400;2023-05-09T03:28:29;101459.47;;;16.94;100.00
47104;BME280;32853;52.164;5.400;2023-05-09T03:30:54;101462.03;;;16.96;100.00
47104;BME280;32853;52.164;5.400;2023-05-09T03:33:20;101489.13;;;16.99;100.00
47104;BME280;32853;52.164;5.400;2023-05-09T03:35:46;101497.13;;;17.13;100.00
47104;BME280;32853;52.164;5.400;2023-05-09T03:38:15;101500.38;;;17.19;100.00
47104;BME280;32853;52.164;5.400;2023-05-09T03:40:43;101489.88;;;17.17;100.00
47104;BME280;32853;52.164;5.400;2023-05-09T03:43:08;101484.94;;;17.11;100.00
47104;BME280;32853;52.164;5.400;2023-05-09T03:45:35;101483.91;;;17.13;100.00
47104;BME280;32853;52.164;5.400;2023-05-09T03:48:00;101471.84;;;17.09;100.00
47104;BME280;32853;52.164;5.400;2023-05-09T03:50:28;101477.69;;;17.14;100.00
47104;BME280;32853;52.164;5.400;2023-05-09T03:52:53;101467.31;;;17.11;100.00
47104;BME280;32853;52.164;5.400;2023-05-09T03:55:28;101422.75;;;16.90;100.00
47104;BME280;32853;52.164;5.400;2023-05-09T03:57:55;101434.44;;;16.86;100.00
47104;BME280;32853;52.164;5.400;2023-05-09T04:00:21;101469.34;;;17.06;100.00
47104;BME280;32853;52.164;5.400;2023-05-09T04:02:47;101463.91;;;17.09;100.00
47104;BME280;32853;52.164;5.400;2023-05-09T04:05:15;101443.47;;;16.97;100.00
47104;BME280;32853;52.164;5.400;2023-05-09T04:07:40;101458.78;;;17.06;100.00
47104;BME280;32853;52.164;5.400;2023-05-09T04:10:06;101456.31;;;17.03;100.00
47104;BME280;32853;52.164;5.400;2023-05-09T04:12:51;101466.97;;;17.02;100.00
47104;BME280;32853;52.164;5.400;2023-05-09T04:15:29;101420.72;;;16.79;100.00
47104;BME280;32853;52.164;5.400;2023-05-09T04:17:55;101413.81;;;16.76;100.00
47104;BME280;32853;52.164;5.400;2023-05-09T04:20:24;101457.44;;;16.99;100.00
47104;BME280;32853;52.164;5.400;2023-05-09T04:22:52;101413.66;;;16.79;100.00
47104;BME280;32853;52.164;5.400;2023-05-09T04:25:23;101412.59;;;16.82;100.00
47104;BME280;32853;52.164;5.400;2023-05-09T04:27:52;101449.75;;;16.95;100.00
47104;BME280;32853;52.164;5.400;2023-05-09T04:30:17;101456.31;;;17.03;100.00
47104;BME280;32853;52.164;5.400;2023-05-09T04:32:43;101460.56;;;17.06;100.00
47104;BME280;32853;52.164;5.400;2023-05-09T04:35:13;101461.69;;;17.02;100.00
47104;BME280;32853;52.164;5.400;2023-05-09T04:37:38;101453.66;;;17.03;100.00
47104;BME280;32853;52.164;5.400;2023-05-09T04:40:07;101430.69;;;16.90;100.00
47104;BME280;32853;52.164;5.400;2023-05-09T04:42:33;101447.91;;;16.97;100.00
47104;BME280;32853;52.164;5.400;2023-05-09T04:45:05;101447.72;;;17.00;100.00
47104;BME280;32853;52.164;5.400;2023-05-09T04:47:37;101393.53;;;16.77;100.00
47104;BME280;32853;52.164;5.400;2023-05-09T04:50:03;101433.75;;;16.98;100.00
47104;BME280;32853;52.164;5.400;2023-05-09T04:52:28;101424.78;;;16.84;100.00
47104;BME280;32853;52.164;5.400;2023-05-09T04:54:55;101440.22;;;16.92;100.00
47104;BME280;32853;52.164;5.400;2023-05-09T04:57:31;101430.50;;;16.93;100.00
47104;BME280;32853;52.164;5.400;2023-05-09T05:00:02;101429.75;;;16.91;100.00
47104;BME280;32853;52.164;5.400;2023-05-09T05:02:32;101428.88;;;16.90;100.00
47104;BME280;32853;52.164;5.400;2023-05-09T05:04:57;101422.22;;;16.99;100.00
47104;BME280;32853;52.164;5.400;2023-05-09T05:07:22;101422.22;;;16.99;100.00
47104;BME280;32853;52.164;5.400;2023-05-09T05:09:52;101426.06;;;16.93;100.00
47104;BME280;32853;52.164;5.400;2023-05-09T05:12:17;101413.28;;;17.01;100.00
47104;BME280;32853;52.164;5.400;2023-05-09T05:14:43;101414.78;;;17.05;100.00
47104;BME280;32853;52.164;5.400;2023-05-09T05:17:09;101413.59;;;16.95;100.00
47104;BME280;32853;52.164;5.400;2023-05-09T05:19:35;101407.56;;;16.93;100.00
47104;BME280;32853;52.164;5.400;2023-05-09T05:22:00;101373.84;;;16.82;100.00
47104;BME280;32853;52.164;5.400;2023-05-09T05:24:31;101350.34;;;16.78;100.00
47104;BME280;32853;52.164;5.400;2023-05-09T05:26:56;101344.28;;;16.76;100.00
47104;BME280;32853;52.164;5.400;2023-05-09T05:29:21;101383.84;;;17.07;100.00
47104;BME280;32853;52.164;5.400;2023-05-09T05:31:48;101377.97;;;17.02;100.00
47104;BME280;32853;52.164;5.400;2023-05-09T05:34:13;101378.38;;;17.10;100.00
47104;BME280;32853;52.164;5.400;2023-05-09T05:36:43;101382.72;;;17.11;100.00
47104;BME280;32853;52.164;5.400;2023-05-09T05:39:19;101384.94;;;17.19;100.00
47104;BME280;32853;52.164;5.400;2023-05-09T05:41:44;101364.03;;;17.14;100.00
47104;BME280;32853;52.164;5.400;2023-05-09T05:44:09;101376.41;;;17.14;100.00
47104;BME280;32853;52.164;5.400;2023-05-09T05:46:37;101373.41;;;17.20;100.00
47104;BME280;32853;52.164;5.400;2023-05-09T05:49:09;101378.59;;;17.22;100.00
47104;BME280;32853;52.164;5.400;2023-05-09T05:51:34;101379.00;;;17.30;100.00
47104;BME280;32853;52.164;5.400;2023-05-09T05:54:00;101376.75;;;17.38;100.00
47104;BME280;32853;52.164;5.400;2023-05-09T05:56:35;101328.56;;;17.19;100.00
47104;BME280;32853;52.164;5.400;2023-05-09T05:59:00;101367.50;;;17.45;100.00
47104;BME280;32853;52.164;5.400;2023-05-09T06:01:27;101355.88;;;17.48;100.00
47104;BME280;32853;52.164;5.400;2023-05-09T06:03:56;101367.72;;;17.56;100.00
47104;BME280;32853;52.164;5.400;2023-05-09T06:06:25;101355.25;;;17.58;100.00
47104;BME280;32853;52.164;5.400;2023-05-09T06:08:52;101342.75;;;17.46;100.00
47104;BME280;32853;52.164;5.400;2023-05-09T06:11:19;101353.00;;;17.52;100.00
47104;BME280;32853;52.164;5.400;2023-05-09T06:13:45;101361.19;;;17.62;100.00
47104;BME280;32853;52.164;5.400;2023-05-09T06:16:11;101304.78;;;17.33;100.00
47104;BME280;32853;52.164;5.400;2023-05-09T06:18:37;101304.41;;;17.25;100.00
47104;BME280;32853;52.164;5.400;2023-05-09T06:21:04;101333.78;;;17.49;100.00
47104;BME280;32853;52.164;5.400;2023-05-09T06:23:29;101302.91;;;17.35;100.00
47104;BME280;32853;52.164;5.400;2023-05-09T06:25:54;101327.09;;;17.57;100.00
47104;BME280;32853;52.164;5.400;2023-05-09T06:28:20;101339.84;;;17.65;100.00
47104;BME280;32853;52.164;5.400;2023-05-09T06:30:45;101289.69;;;17.35;100.00
47104;BME280;32853;52.164;5.400;2023-05-09T06:33:10;101336.25;;;17.66;100.00
47104;BME280;32853;52.164;5.400;2023-05-09T06:35:36;101323.78;;;17.68;100.00
47104;BME280;32853;52.164;5.400;2023-05-09T06:38:04;101328.06;;;17.70;100.00
47104;BME280;32853;52.164;5.400;2023-05-09T06:40:29;101322.00;;;17.68;100.00
47104;BME280;32853;52.164;5.400;2023-05-09T06:42:55;101307.00;;;17.69;100.00
47104;BME280;32853;52.164;5.400;2023-05-09T06:45:20;101310.13;;;17.76;100.00
47104;BME280;32853;52.164;5.400;2023-05-09T06:47:45;101270.81;;;17.41;100.00
47104;BME280;32853;52.164;5.400;2023-05-09T06:50:11;101315.44;;;17.76;100.00
47104;BME280;32853;52.164;5.400;2023-05-09T06:52:36;101314.28;;;17.80;100.00
47104;BME280;32853;52.164;5.400;2023-05-09T06:55:14;101308.41;;;17.89;100.00
47104;BME280;32853;52.164;5.400;2023-05-09T06:57:40;101312.69;;;17.77;100.00
47104;BME280;32853;52.164;5.400;2023-05-09T07:00:21;101293.56;;;17.72;100.00
47104;BME280;32853;52.164;5.400;2023-05-09T07:02:48;101289.13;;;17.73;100.00
47104;BME280;32853;52.164;5.400;2023-05-09T07:05:13;101297.34;;;17.82;100.00
47104;BME280;32853;52.164;5.400;2023-05-09T07:07:40;101293.50;;;17.74;100.00
47104;BME280;32853;52.164;5.400;2023-05-09T07:10:06;101302.66;;;17.82;100.00
47104;BME280;32853;52.164;5.400;2023-05-09T07:12:31;101306.03;;;17.84;100.00
47104;BME280;32853;52.164;5.400;2023-05-09T07:14:57;101290.88;;;17.74;100.00
47104;BME280;32853;52.164;5.400;2023-05-09T07:17:22;101295.22;;;17.75;100.00
47104;BME280;32853;52.164;5.400;2023-05-09T07:19:50;101296.88;;;17.90;100.00
47104;BME280;32853;52.164;5.400;2023-05-09T07:22:42;101285.91;;;17.96;100.00
47104;BME280;32853;52.164;5.400;2023-05-09T07:25:13;101244.63;;;17.65;100.00
47104;BME280;32853;52.164;5.400;2023-05-09T07:27:38;101283.75;;;17.88;100.00
47104;BME280;32853;52.164;5.400;2023-05-09T07:30:04;101240.66;;;17.72;100.00
47104;BME280;32853;52.164;5.400;2023-05-09T07:32:30;101222.81;;;17.61;100.00
47104;BME280;32853;52.164;5.400;2023-05-09T07:34:55;101267.59;;;17.79;100.00
47104;BME280;32853;52.164;5.400;2023-05-09T07:37:29;101241.53;;;17.73;100.00
47104;BME280;32853;52.164;5.400;2023-05-09T07:39:54;101283.53;;;17.91;100.00
47104;BME280;32853;52.164;5.400;2023-05-09T07:42:20;101286.13;;;17.79;100.00
47104;BME280;32853;52.164;5.400;2023-05-09T07:44:46;101272.78;;;17.80;100.00
47104;BME280;32853;52.164;5.400;2023-05-09T07:47:11;101270.44;;;17.76;100.00
47104;BME280;32853;52.164;5.400;2023-05-09T07:49:36;101260.88;;;17.73;100.00
47104;BME280;32853;52.164;5.400;2023-05-09T07:52:02;101227.38;;;17.45;100.00
47104;BME280;32853;52.164;5.400;2023-05-09T07:54:27;101252.47;;;17.66;100.00
47104;BME280;32853;52.164;5.400;2023-05-09T07:56:52;101218.00;;;17.54;100.00
47104;BME280;32853;52.164;5.400;2023-05-09T07:59:18;101270.03;;;17.82;100.00
47104;BME280;32853;52.164;5.400;2023-05-09T08:01:53;101267.78;;;17.90;100.00
47104;BME280;32853;52.164;5.400;2023-05-09T08:04:19;101256.34;;;17.61;100.00
47104;BME280;32853;52.164;5.400;2023-05-09T08:06:44;101257.00;;;17.64;100.00
47104;BME280;32853;52.164;5.400;2023-05-09T08:09:09;101246.81;;;17.73;100.00
47104;BME280;32853;52.164;5.400;2023-05-09T08:11:35;101219.03;;;17.65;100.00
47104;BME280;32853;52.164;5.400;2023-05-09T08:14:00;101245.38;;;17.81;100.00
47104;BME280;32853;52.164;5.400;2023-05-09T08:16:26;101238.41;;;17.80;100.00
47104;BME280;32853;52.164;5.400;2023-05-09T08:19:05;101238.75;;;17.88;100.00
47104;BME280;32853;52.164;5.400;2023-05-09T08:21:30;101191.25;;;17.58;100.00
47104;BME280;32853;52.164;5.400;2023-05-09T08:24:15;101230.28;;;17.55;100.00
47104;BME280;32853;52.164;5.400;2023-05-09T08:26:40;101220.06;;;17.49;100.00
47104;BME280;32853;52.164;5.400;2023-05-09T08:29:10;101161.47;;;17.28;100.00
47104;BME280;32853;52.164;5.400;2023-05-09T08:31:40;101221.84;;;17.62;100.00
47104;BME280;32853;52.164;5.400;2023-05-09T08:34:05;101217.44;;;17.63;100.00
47104;BME280;32853;52.164;5.400;2023-05-09T08:36:31;101206.56;;;17.67;100.00
47104;BME280;32853;52.164;5.400;2023-05-09T08:38:56;101206.66;;;17.80;100.00
47104;BME280;32853;52.164;5.400;2023-05-09T08:41:25;101190.69;;;17.67;100.00
47104;BME280;32853;52.164;5.400;2023-05-09T08:43:54;101188.13;;;17.66;100.00
47104;BME280;32853;52.164;5.400;2023-05-09T08:46:43;101204.00;;;17.66;100.00
47104;BME280;32853;52.164;5.400;2023-05-09T08:49:08;101195.22;;;17.65;100.00
47104;BME280;32853;52.164;5.400;2023-05-09T08:51:42;101209.88;;;17.57;100.00
47104;BME280;32853;52.164;5.400;2023-05-09T08:54:09;101174.69;;;17.28;100.00
47104;BME280;32853;52.164;5.400;2023-05-09T08:56:45;101157.88;;;17.43;100.00
47104;BME280;32853;52.164;5.400;2023-05-09T08:59:16;101158.47;;;17.20;100.00
47104;BME280;32853;52.164;5.400;2023-05-09T09:01:58;101188.44;;;17.47;100.00
47104;BME280;32853;52.164;5.400;2023-05-09T09:04:38;101185.34;;;17.40;100.00
47104;BME280;32853;52.164;5.400;2023-05-09T09:07:05;101172.88;;;17.42;100.00
47104;BME280;32853;52.164;5.400;2023-05-09T09:09:32;101169.84;;;17.49;100.00
47104;BME280;32853;52.164;5.400;2023-05-09T09:12:05;101175.13;;;17.63;100.00
47104;BME280;32853;52.164;5.400;2023-05-09T09:14:37;101171.16;;;17.56;100.00
47104;BME280;32853;52.164;5.400;2023-05-09T09:17:04;101144.06;;;17.38;100.00
47104;BME280;32853;52.164;5.400;2023-05-09T09:19:32;101170.88;;;17.46;100.00
47104;BME280;32853;52.164;5.400;2023-05-09T09:22:07;101169.00;;;17.48;100.00
47104;BME280;32853;52.164;5.400;2023-05-09T09:24:35;101139.28;;;17.30;100.00
47104;BME280;32853;52.164;5.400;2023-05-09T09:27:05;101175.44;;;17.44;100.00
47104;BME280;32853;52.164;5.400;2023-05-09T09:29:35;101151.16;;;17.37;100.00
47104;BME280;32853;52.164;5.400;2023-05-09T09:32:03;101165.69;;;17.45;100.00
47104;BME280;32853;52.164;5.400;2023-05-09T09:34:31;101158.34;;;17.35;100.00
47104;BME280;32853;52.164;5.400;2023-05-09T09:36:57;101171.25;;;17.54;100.00
47104;BME280;32853;52.164;5.400;2023-05-09T09:39:27;101164.16;;;17.55;100.00
47104;BME280;32853;52.164;5.400;2023-05-09T09:41:52;101168.31;;;17.59;100.00
47104;BME280;32853;52.164;5.400;2023-05-09T09:44:21;101162.38;;;17.69;100.00
47104;BME280;32853;52.164;5.400;2023-05-09T09:46:53;101085.66;;;17.28;100.00
47104;BME280;32853;52.164;5.400;2023-05-09T09:49:32;101151.56;;;17.73;100.00
47104;BME280;32853;52.164;5.400;2023-05-09T09:51:57;101159.13;;;17.79;100.00
47104;BME280;32853;52.164;5.400;2023-05-09T09:54:31;101148.94;;;17.73;100.00
47104;BME280;32853;52.164;5.400;2023-05-09T10:00:26;101152.06;;;17.51;100.00
47104;BME280;32853;52.164;5.400;2023-05-09T10:02:55;101113.22;;;17.24;100.00
47104;BME280;32853;52.164;5.400;2023-05-09T10:05:24;101154.72;;;17.51;100.00
47104;BME280;32853;52.164;5.400;2023-05-09T10:08:10;101122.66;;;17.42;100.00
47104;BME280;32853;52.164;5.400;2023-05-09T10:10:36;101152.75;;;17.54;100.00
47104;BME280;32853;52.164;5.400;2023-05-09T10:13:06;101151.22;;;17.64;100.00
47104;BME280;32853;52.164;5.400;2023-05-09T10:15:34;101149.44;;;17.51;100.00
47104;BME280;32853;52.164;5.400;2023-05-09T10:18:01;101132.53;;;17.53;100.00
47104;BME280;32853;52.164;5.400;2023-05-09T10:20:29;101144.91;;;17.53;100.00
47104;BME280;32853;52.164;5.400;2023-05-09T10:22:57;101124.59;;;17.53;100.00
47104;BME280;32853;52.164;5.400;2023-05-09T10:25:28;101138.56;;;17.55;100.00
47104;BME280;32853;52.164;5.400;2023-05-09T10:27:59;101130.34;;;17.60;100.00
47104;BME280;32853;52.164;5.400;2023-05-09T10:30:31;101134.19;;;17.68;100.00
47104;BME280;32853;52.164;5.400;2023-05-09T10:33:03;101136.94;;;17.67;100.00
47104;BME280;32853;52.164;5.400;2023-05-09T10:35:32;101118.81;;;17.61;100.00
47104;BME280;32853;52.164;5.400;2023-05-09T10:38:00;101123.34;;;17.59;100.00
47104;BME280;32853;52.164;5.400;2023-05-09T10:40:30;101128.16;;;17.66;100.00
47104;BME280;32853;52.164;5.400;2023-05-09T10:42:56;101071.56;;;17.42;100.00
47104;BME280;32853;52.164;5.400;2023-05-09T10:45:22;101064.22;;;17.33;100.00
47104;BME280;32853;52.164;5.400;2023-05-09T10:47:49;101103.31;;;17.69;100.00
47104;BME280;32853;52.164;5.400;2023-05-09T10:50:16;101106.44;;;17.61;100.00
47104;BME280;32853;52.164;5.400;2023-05-09T10:58:19;101095.31;;;17.56;100.00
47104;BME280;32853;52.164;5.400;2023-05-09T11:00:45;101097.09;;;17.70;100.00
47104;BME280;32853;52.164;5.400;2023-05-09T11:03:11;101089.41;;;17.80;100.00
47104;BME280;32853;52.164;5.400;2023-05-09T11:05:40;101078.63;;;17.68;100.00
47104;BME280;32853;52.164;5.400;2023-05-09T11:08:28;101079.13;;;17.75;100.00
47104;BME280;32853;52.164;5.400;2023-05-09T11:10:57;101065.63;;;17.65;100.00
47104;BME280;32853;52.164;5.400;2023-05-09T11:13:29;101079.59;;;17.67;100.00
47104;BME280;32853;52.164;5.400;2023-05-09T11:18:23;101035.72;;;17.51;100.00
47104;BME280;32853;52.164;5.400;2023-05-09T11:20:49;101060.63;;;17.61;100.00
47104;BME280;32853;52.164;5.400;2023-05-09T11:23:20;101060.22;;;17.67;100.00
47104;BME280;32853;52.164;5.400;2023-05-09T11:25:49;101065.13;;;17.73;100.00
47104;BME280;32853;52.164;5.400;2023-05-09T11:28:30;101026.63;;;17.42;100.00
47104;BME280;32853;52.164;5.400;2023-05-09T11:31:12;101062.47;;;17.73;100.00
47104;BME280;32853;52.164;5.400;2023-05-09T11:33:39;101044.22;;;17.56;100.00
47104;BME280;32853;52.164;5.400;2023-05-09T11:36:27;101053.25;;;17.66;100.00
47104;BME280;32853;52.164;5.400;2023-05-09T11:39:04;101053.63;;;17.74;100.00
47104;BME280;32853;52.164;5.400;2023-05-09T11:41:35;101035.78;;;17.63;100.00
47104;BME280;32853;52.164;5.400;2023-05-09T11:44:09;101040.41;;;17.74;100.00
47104;BME280;32853;52.164;5.400;2023-05-09T11:46:36;100999.47;;;17.53;100.00
47104;BME280;32853;52.164;5.400;2023-05-09T11:49:01;101042.19;;;17.74;100.00
47104;BME280;32853;52.164;5.400;2023-05-09T11:51:30;101039.13;;;17.80;100.00
47104;BME280;32853;52.164;5.400;2023-05-09T11:53:55;101046.66;;;17.86;100.00
47104;BME280;32853;52.164;5.400;2023-05-09T11:56:20;100989.53;;;17.56;100.00
47104;BME280;32853;52.164;5.400;2023-05-09T11:58:49;101022.72;;;17.75;100.00
47104;BME280;32853;52.164;5.400;2023-05-09T12:01:15;101038.41;;;17.90;100.00
47104;BME280;32853;52.164;5.400;2023-05-09T12:03:43;101002.59;;;17.72;100.00
47104;BME280;32853;52.164;5.400;2023-05-09T12:06:13;101017.22;;;17.78;100.00
47104;BME280;32853;52.164;5.400;2023-05-09T12:08:45;100990.88;;;17.49;100.00
47104;BME280;32853;52.164;5.400;2023-05-09T12:11:13;101026.13;;;17.77;100.00
47104;BME280;32853;52.164;5.400;2023-05-09T12:13:50;100980.75;;;17.29;100.00
47104;BME280;32853;52.164;5.400;2023-05-09T12:16:23;101011.13;;;17.36;100.00
47104;BME280;32853;52.164;5.400;2023-05-09T12:18:50;101017.00;;;17.41;100.00
47104;BME280;32853;52.164;5.400;2023-05-09T12:21:16;101020.91;;;17.48;100.00
47104;BME280;32853;52.164;5.400;2023-05-09T12:23:46;101030.03;;;17.57;100.00
47104;BME280;32853;52.164;5.400;2023-05-09T12:26:15;101011.53;;;17.57;100.00
47104;BME280;32853;52.164;5.400;2023-05-09T12:28:50;100999.59;;;17.64;100.00
47104;BME280;32853;52.164;5.400;2023-05-09T12:31:22;101001.34;;;17.51;100.00
47104;BME280;32853;52.164;5.400;2023-05-09T12:33:49;100994.59;;;17.59;100.00
47104;BME280;32853;52.164;5.400;2023-05-09T12:36:16;100989.53;;;17.56;100.00
47104;BME280;32853;52.164;5.400;2023-05-09T12:39:08;101002.53;;;17.74;100.00
47104;BME280;32853;52.164;5.400;2023-05-09T12:41:48;100997.69;;;17.66;100.00
47104;BME280;32853;52.164;5.400;2023-05-09T12:44:30;100990.88;;;17.76;100.00
47104;BME280;32853;52.164;5.400;2023-05-09T12:47:01;100997.22;;;17.74;100.00
47104;BME280;32853;52.164;5.400;2023-05-09T12:49:31;100978.16;;;17.81;100.00
47104;BME280;32853;52.164;5.400;2023-05-09T12:51:58;100983.47;;;17.81;100.00
47104;BME280;32853;52.164;5.400;2023-05-09T12:54:26;100932.09;;;17.58;100.00
47104;BME280;32853;52.164;5.400;2023-05-09T12:56:53;100976.19;;;17.97;100.00
47104;BME280;32853;52.164;5.400;2023-05-09T12:59:27;100976.72;;;17.90;100.00
47104;BME280;32853;52.164;5.400;2023-05-09T13:01:54;100977.09;;;17.84;100.00
47104;BME280;32853;52.164;5.400;2023-05-09T13:04:21;100933.16;;;17.56;100.00
47104;BME280;32853;52.164;5.400;2023-05-09T13:06:48;100980.81;;;17.81;100.00
47104;BME280;32853;52.164;5.400;2023-05-09T13:09:16;100974.56;;;17.95;100.00
47104;BME280;32853;52.164;5.400;2023-05-09T13:11:42;100958.41;;;17.87;100.00
47104;BME280;32853;52.164;5.400;2023-05-09T13:14:08;100969.41;;;17.93;100.00